Terminal Aerodrome Forecast
Issued by NWS

Home | Current Version | Previous Version | Text Only | Print | Product List | Glossary On
Versions: 1 2 3 4 5 6 7 8 9 10 11 12 13 14 15 16 17 18 19 20 21 22 23 24 25
729
FTUS41 KGYX 221602 AAB
TAFLEB
TAF AMD
KLEB 221602Z 2216/2312 19011KT P6SM -SHRA BKN050 OVC080
     FM221800 19011KT P6SM -SHRA BKN030 OVC040
     FM230400 19004KT P6SM OVC015=

USA.gov is the U.S. government's official web portal to all federal, state and local government web resources and services.